sensor_id;sensor_type;location;lat;lon;timestamp;P1;durP1;ratioP1;P2;durP2;ratioP2
50689;SDS011;54375;48.298;11.238;2023-02-28T00:10:44;12.32;;;5.47;;
50689;SDS011;54375;48.298;11.238;2023-02-28T00:25:47;8.80;;;4.88;;
50689;SDS011;54375;48.298;11.238;2023-02-28T00:40:49;9.05;;;5.07;;
50689;SDS011;54375;48.298;11.238;2023-02-28T00:55:51;12.40;;;4.78;;
50689;SDS011;54375;48.298;11.238;2023-02-28T01:10:54;6.78;;;4.75;;
50689;SDS011;54375;48.298;11.238;2023-02-28T01:25:57;9.05;;;5.18;;
50689;SDS011;54375;48.298;11.238;2023-02-28T01:40:59;9.35;;;4.55;;
50689;SDS011;54375;48.298;11.238;2023-02-28T01:56:03;10.52;;;4.82;;
50689;SDS011;54375;48.298;11.238;2023-02-28T02:11:08;9.82;;;4.82;;
50689;SDS011;54375;48.298;11.238;2023-02-28T02:42:09;9.50;;;5.40;;
50689;SDS011;54375;48.298;11.238;2023-02-28T02:57:17;11.45;;;5.85;;
50689;SDS011;54375;48.298;11.238;2023-02-28T03:12:25;10.52;;;6.25;;
50689;SDS011;54375;48.298;11.238;2023-02-28T03:27:35;13.77;;;6.72;;
50689;SDS011;54375;48.298;11.238;2023-02-28T03:42:41;12.82;;;6.53;;
50689;SDS011;54375;48.298;11.238;2023-02-28T03:57:50;13.07;;;6.97;;
50689;SDS011;54375;48.298;11.238;2023-02-28T04:12:58;18.13;;;7.93;;
50689;SDS011;54375;48.298;11.238;2023-02-28T04:28:00;15.52;;;7.80;;
50689;SDS011;54375;48.298;11.238;2023-02-28T04:43:03;19.35;;;8.73;;
50689;SDS011;54375;48.298;11.238;2023-02-28T04:58:05;16.20;;;8.60;;
50689;SDS011;54375;48.298;11.238;2023-02-28T05:13:08;19.17;;;8.75;;
50689;SDS011;54375;48.298;11.238;2023-02-28T05:28:12;15.93;;;8.68;;
50689;SDS011;54375;48.298;11.238;2023-02-28T05:43:14;18.17;;;10.25;;
50689;SDS011;54375;48.298;11.238;2023-02-28T05:58:16;19.83;;;10.38;;
50689;SDS011;54375;48.298;11.238;2023-02-28T06:13:19;19.13;;;10.73;;
50689;SDS011;54375;48.298;11.238;2023-02-28T06:28:21;21.73;;;10.75;;
50689;SDS011;54375;48.298;11.238;2023-02-28T06:43:23;20.98;;;11.20;;
50689;SDS011;54375;48.298;11.238;2023-02-28T06:58:26;20.33;;;11.70;;
50689;SDS011;54375;48.298;11.238;2023-02-28T07:13:29;20.73;;;11.38;;
50689;SDS011;54375;48.298;11.238;2023-02-28T07:28:32;23.80;;;10.82;;
50689;SDS011;54375;48.298;11.238;2023-02-28T07:43:34;20.73;;;10.90;;
50689;SDS011;54375;48.298;11.238;2023-02-28T07:58:37;26.52;;;12.40;;
50689;SDS011;54375;48.298;11.238;2023-02-28T08:13:39;25.30;;;12.70;;
50689;SDS011;54375;48.298;11.238;2023-02-28T08:28:42;22.52;;;12.57;;
50689;SDS011;54375;48.298;11.238;2023-02-28T08:43:44;27.77;;;14.60;;
50689;SDS011;54375;48.298;11.238;2023-02-28T08:58:47;25.13;;;13.35;;
50689;SDS011;54375;48.298;11.238;2023-02-28T09:13:50;26.50;;;13.05;;
50689;SDS011;54375;48.298;11.238;2023-02-28T09:28:53;26.45;;;14.57;;
50689;SDS011;54375;48.298;11.238;2023-02-28T09:43:57;23.23;;;14.50;;
50689;SDS011;54375;48.298;11.238;2023-02-28T09:59:04;24.15;;;14.18;;
50689;SDS011;54375;48.298;11.238;2023-02-28T10:14:13;24.00;;;14.32;;
50689;SDS011;54375;48.298;11.238;2023-02-28T10:29:17;21.90;;;13.55;;
50689;SDS011;54375;48.298;11.238;2023-02-28T10:44:22;21.90;;;13.52;;
50689;SDS011;54375;48.298;11.238;2023-02-28T10:59:27;22.67;;;14.80;;
50689;SDS011;54375;48.298;11.238;2023-02-28T11:14:32;22.98;;;14.48;;
50689;SDS011;54375;48.298;11.238;2023-02-28T11:29:39;21.30;;;13.48;;
50689;SDS011;54375;48.298;11.238;2023-02-28T11:44:53;21.30;;;14.07;;
50689;SDS011;54375;48.298;11.238;2023-02-28T12:00:05;21.30;;;13.88;;
50689;SDS011;54375;48.298;11.238;2023-02-28T12:15:26;20.35;;;13.35;;
50689;SDS011;54375;48.298;11.238;2023-02-28T12:30:48;23.50;;;14.27;;
50689;SDS011;54375;48.298;11.238;2023-02-28T12:45:55;22.00;;;13.52;;
50689;SDS011;54375;48.298;11.238;2023-02-28T13:01:06;21.02;;;13.25;;
50689;SDS011;54375;48.298;11.238;2023-02-28T13:47:38;17.98;;;12.18;;
50689;SDS011;54375;48.298;11.238;2023-02-28T14:02:45;18.77;;;12.35;;
50689;SDS011;54375;48.298;11.238;2023-02-28T14:18:02;17.77;;;12.13;;
50689;SDS011;54375;48.298;11.238;2023-02-28T14:48:32;20.33;;;13.02;;
50689;SDS011;54375;48.298;11.238;2023-02-28T15:03:37;19.10;;;12.20;;
50689;SDS011;54375;48.298;11.238;2023-02-28T15:18:43;17.60;;;11.88;;
50689;SDS011;54375;48.298;11.238;2023-02-28T15:33:56;19.65;;;12.27;;
50689;SDS011;54375;48.298;11.238;2023-02-28T15:49:03;21.67;;;13.20;;
50689;SDS011;54375;48.298;11.238;2023-02-28T16:04:10;20.27;;;13.40;;
50689;SDS011;54375;48.298;11.238;2023-02-28T16:19:16;18.50;;;12.00;;
50689;SDS011;54375;48.298;11.238;2023-02-28T16:34:19;19.42;;;12.95;;
50689;SDS011;54375;48.298;11.238;2023-02-28T16:49:21;22.83;;;12.77;;
50689;SDS011;54375;48.298;11.238;2023-02-28T17:04:24;24.30;;;15.50;;
50689;SDS011;54375;48.298;11.238;2023-02-28T17:19:27;24.65;;;14.45;;
50689;SDS011;54375;48.298;11.238;2023-02-28T17:34:29;27.00;;;16.42;;
50689;SDS011;54375;48.298;11.238;2023-02-28T17:49:31;41.20;;;20.23;;
50689;SDS011;54375;48.298;11.238;2023-02-28T18:04:34;34.10;;;17.10;;
50689;SDS011;54375;48.298;11.238;2023-02-28T18:19:36;41.50;;;20.83;;
50689;SDS011;54375;48.298;11.238;2023-02-28T18:34:39;31.80;;;17.73;;
50689;SDS011;54375;48.298;11.238;2023-02-28T18:49:41;28.00;;;16.20;;
50689;SDS011;54375;48.298;11.238;2023-02-28T19:04:43;30.63;;;16.98;;
50689;SDS011;54375;48.298;11.238;2023-02-28T19:19:45;28.60;;;16.02;;
50689;SDS011;54375;48.298;11.238;2023-02-28T19:34:48;24.77;;;15.25;;
50689;SDS011;54375;48.298;11.238;2023-02-28T19:49:50;28.95;;;17.45;;
50689;SDS011;54375;48.298;11.238;2023-02-28T20:04:53;29.85;;;16.55;;
50689;SDS011;54375;48.298;11.238;2023-02-28T20:19:55;34.83;;;18.83;;
50689;SDS011;54375;48.298;11.238;2023-02-28T20:34:58;32.65;;;18.13;;
50689;SDS011;54375;48.298;11.238;2023-02-28T20:50:00;31.33;;;17.35;;
50689;SDS011;54375;48.298;11.238;2023-02-28T21:05:03;29.77;;;17.52;;
50689;SDS011;54375;48.298;11.238;2023-02-28T21:20:07;31.45;;;18.25;;
50689;SDS011;54375;48.298;11.238;2023-02-28T21:35:10;37.30;;;19.75;;
50689;SDS011;54375;48.298;11.238;2023-02-28T21:50:12;34.28;;;19.45;;
50689;SDS011;54375;48.298;11.238;2023-02-28T22:05:15;39.78;;;20.77;;
50689;SDS011;54375;48.298;11.238;2023-02-28T22:20:17;36.65;;;20.67;;
50689;SDS011;54375;48.298;11.238;2023-02-28T22:35:20;33.88;;;19.70;;
50689;SDS011;54375;48.298;11.238;2023-02-28T22:50:22;34.55;;;18.98;;
50689;SDS011;54375;48.298;11.238;2023-02-28T23:05:30;33.72;;;19.10;;
50689;SDS011;54375;48.298;11.238;2023-02-28T23:20:33;31.02;;;18.58;;
50689;SDS011;54375;48.298;11.238;2023-02-28T23:35:35;41.50;;;20.20;;
50689;SDS011;54375;48.298;11.238;2023-02-28T23:50:37;33.08;;;17.50;;
